Time;durP1;ratioP1;P1;durP2;ratioP2;P2;SDS_P1;SDS_P2;PMS_P1;PMS_P2;Temp;Humidity;BMP_temperature;BMP_pressure;BME280_temperature;BME280_humidity;BME280_pressure;Samples;Min_cycle;Max_cycle;Signal;HPM_P1;HPM_P2
2023/07/15 00:00:51;;;;;;;1.65;1.52;;;17.10;99.90;;;;;;5034816;28;20070;-76
2023/07/15 00:03:18;;;;;;;1.60;1.50;;;17.10;99.90;;;;;;5035038;28;20714;-76
2023/07/15 00:05:45;;;;;;;2.63;1.50;;;17.10;99.90;;;;;;5035154;28;20133;-76
2023/07/15 00:08:11;;;;;;;3.85;1.88;;;17.00;99.90;;;;;;5034824;28;20026;-76
2023/07/15 00:10:39;;;;;;;4.32;1.17;;;17.00;99.90;;;;;;5033175;28;20030;-76
2023/07/15 00:13:13;;;;;;;3.20;1.65;;;17.00;99.90;;;;;;5034711;28;20030;-76
2023/07/15 00:15:40;;;;;;;4.35;1.58;;;17.00;99.90;;;;;;5034627;28;20168;-76
2023/07/15 00:18:06;;;;;;;3.80;1.77;;;16.90;99.90;;;;;;5032886;28;20026;-75
2023/07/15 00:20:32;;;;;;;2.40;1.65;;;17.00;99.90;;;;;;5034529;28;20026;-76
2023/07/15 00:22:58;;;;;;;2.28;1.83;;;16.90;99.90;;;;;;5034577;28;20127;-76
2023/07/15 00:25:25;;;;;;;3.75;1.50;;;16.90;99.90;;;;;;5035015;28;20079;-77
2023/07/15 00:27:50;;;;;;;3.20;1.55;;;16.80;99.90;;;;;;5034480;28;20037;-75
2023/07/15 00:30:19;;;;;;;6.13;1.75;;;16.80;99.90;;;;;;5034530;28;20017;-76
2023/07/15 00:32:47;;;;;;;2.42;1.90;;;16.80;99.90;;;;;;5033377;28;20565;-76
2023/07/15 00:35:22;;;;;;;2.75;1.70;;;16.80;99.90;;;;;;5033171;28;20022;-75
2023/07/15 00:37:47;;;;;;;1.97;1.70;;;16.80;99.90;;;;;;5033206;28;20465;-76
2023/07/15 00:40:14;;;;;;;4.65;1.77;;;16.70;99.90;;;;;;5034458;28;20049;-76
2023/07/15 00:43:18;;;;;;;5.25;1.80;;;16.60;99.90;;;;;;5033287;28;20021;-76
2023/07/15 00:46:04;;;;;;;2.50;1.40;;;16.60;99.90;;;;;;5033389;28;20046;-76
2023/07/15 00:48:32;;;;;;;2.75;1.80;;;16.60;99.90;;;;;;5033605;28;20021;-76
2023/07/15 00:50:58;;;;;;;2.63;1.55;;;16.60;99.90;;;;;;5034327;28;20117;-76
2023/07/15 00:53:24;;;;;;;2.40;2.20;;;16.50;99.90;;;;;;5032966;28;20104;-76
2023/07/15 00:55:50;;;;;;;2.03;1.40;;;16.50;99.90;;;;;;5034076;28;20036;-76
2023/07/15 00:58:15;;;;;;;2.67;1.50;;;16.50;99.90;;;;;;5033310;28;20084;-76
2023/07/15 01:00:41;;;;;;;2.25;2.03;;;16.50;99.90;;;;;;5034115;28;20014;-77
2023/07/15 01:03:06;;;;;;;3.20;1.60;;;16.50;99.90;;;;;;5034227;28;20026;-76
2023/07/15 01:05:32;;;;;;;2.50;2.03;;;16.50;99.90;;;;;;5034086;28;20033;-76
2023/07/15 01:07:58;;;;;;;2.25;1.60;;;16.50;99.90;;;;;;5032571;28;20108;-76
2023/07/15 01:10:23;;;;;;;4.15;1.35;;;16.40;99.90;;;;;;5033912;28;20041;-76
2023/07/15 01:12:49;;;;;;;1.60;1.50;;;16.50;99.90;;;;;;5033968;28;20558;-76
2023/07/15 01:15:15;;;;;;;1.48;1.38;;;16.50;99.90;;;;;;5033979;28;20402;-76
2023/07/15 01:17:40;;;;;;;2.50;2.30;;;16.50;99.90;;;;;;5033709;28;20026;-76
2023/07/15 01:20:07;;;;;;;1.60;1.50;;;16.50;99.90;;;;;;5033755;28;20017;-76
2023/07/15 01:22:37;;;;;;;1.15;1.08;;;16.40;99.90;;;;;;5033711;28;20032;-76
2023/07/15 01:25:05;;;;;;;3.80;1.60;;;16.20;99.90;;;;;;5032310;28;20367;-76
2023/07/15 01:27:31;;;;;;;6.15;1.77;;;16.20;99.90;;;;;;5033466;28;20032;-76
2023/07/15 01:29:56;;;;;;;5.13;1.42;;;16.20;99.90;;;;;;5033602;28;20021;-76
2023/07/15 01:32:22;;;;;;;3.42;1.70;;;16.20;99.90;;;;;;5033355;28;20076;-75
2023/07/15 01:34:48;;;;;;;2.80;1.58;;;16.20;99.90;;;;;;5033506;28;20025;-76
2023/07/15 01:37:13;;;;;;;1.65;1.40;;;16.20;99.90;;;;;;5033396;28;20052;-75
2023/07/15 01:39:39;;;;;;;1.92;1.33;;;16.20;99.90;;;;;;5032789;28;20026;-76
2023/07/15 01:42:05;;;;;;;1.95;1.75;;;16.10;99.90;;;;;;5032881;28;20033;-76
2023/07/15 01:44:31;;;;;;;1.52;1.25;;;16.20;99.90;;;;;;5032030;28;20021;-76
2023/07/15 01:46:56;;;;;;;2.67;1.83;;;16.20;99.90;;;;;;5033371;28;20092;-76
2023/07/15 01:49:22;;;;;;;8.27;1.75;;;16.20;99.90;;;;;;5033105;28;20548;-76
2023/07/15 01:51:47;;;;;;;1.50;1.40;;;16.10;99.90;;;;;;5031784;28;20029;-76
2023/07/15 01:54:13;;;;;;;4.03;1.63;;;16.10;99.90;;;;;;5033082;28;20025;-77
2023/07/15 01:56:41;;;;;;;1.20;1.10;;;16.10;99.90;;;;;;5031628;28;20026;-77
2023/07/15 01:59:07;;;;;;;3.22;1.40;;;16.10;99.90;;;;;;5032828;28;20382;-77
2023/07/15 02:01:33;;;;;;;2.95;1.77;;;16.10;99.90;;;;;;5032147;28;20033;-76
2023/07/15 02:03:59;;;;;;;2.33;1.92;;;16.10;99.90;;;;;;5032956;28;20156;-77
2023/07/15 02:06:25;;;;;;;3.33;1.50;;;16.00;99.90;;;;;;5032913;28;20398;-77
2023/07/15 02:08:51;;;;;;;4.22;1.25;;;16.00;99.90;;;;;;5031391;28;20032;-77
2023/07/15 02:11:16;;;;;;;4.03;2.40;;;16.00;99.90;;;;;;5032300;28;20022;-77
2023/07/15 02:13:42;;;;;;;3.75;1.30;;;16.00;99.90;;;;;;5031464;28;20421;-77
2023/07/15 02:16:08;;;;;;;2.38;1.45;;;16.00;99.90;;;;;;5032553;28;20033;-77
2023/07/15 02:18:33;;;;;;;5.90;1.77;;;16.00;99.90;;;;;;5031283;28;20017;-77
2023/07/15 02:20:59;;;;;;;1.63;1.52;;;15.90;99.90;;;;;;5032450;28;20049;-77
2023/07/15 02:23:25;;;;;;;2.13;1.33;;;15.00;99.90;;;;;;5032288;28;20382;-77
2023/07/15 02:25:50;;;;;;;1.85;1.52;;;15.80;99.90;;;;;;5031281;28;20022;-76
2023/07/15 02:28:16;;;;;;;1.70;1.60;;;15.80;99.90;;;;;;5030970;28;20035;-77
2023/07/15 02:30:42;;;;;;;3.05;2.03;;;15.80;99.90;;;;;;5032501;28;20056;-75
2023/07/15 02:33:07;;;;;;;3.00;2.00;;;15.70;99.90;;;;;;5032598;28;20036;-77
2023/07/15 02:35:33;;;;;;;2.33;1.80;;;15.70;99.90;;;;;;5032239;28;20071;-77
2023/07/15 02:37:59;;;;;;;1.70;1.60;;;15.70;99.90;;;;;;5032275;28;20018;-77
2023/07/15 02:40:25;;;;;;;2.03;1.40;;;15.60;99.90;;;;;;5032332;28;20017;-76
2023/07/15 02:42:52;;;;;;;1.85;1.75;;;15.60;99.90;;;;;;5032315;28;20032;-76
2023/07/15 02:45:18;;;;;;;3.58;1.55;;;15.60;99.90;;;;;;5032107;28;20528;-76
2023/07/15 02:47:43;;;;;;;7.18;2.47;;;15.60;99.90;;;;;;5032033;28;20136;-76
2023/07/15 02:50:10;;;;;;;3.00;1.40;;;15.60;99.90;;;;;;5032137;28;20104;-76
2023/07/15 02:52:37;;;;;;;1.88;1.33;;;15.60;99.90;;;;;;5030822;28;20029;-76
2023/07/15 02:55:04;;;;;;;4.60;1.70;;;15.50;99.90;;;;;;5032017;28;20572;-77
2023/07/15 02:57:30;;;;;;;6.28;2.00;;;15.50;99.90;;;;;;5031875;28;20378;-77
2023/07/15 02:59:56;;;;;;;3.92;1.95;;;15.50;99.90;;;;;;5032035;28;20149;-77
2023/07/15 03:02:22;;;;;;;3.75;1.60;;;15.50;99.90;;;;;;5031943;28;20028;-77
2023/07/15 03:04:49;;;;;;;1.30;1.20;;;15.50;99.90;;;;;;5030356;28;20025;-77
2023/07/15 03:07:16;;;;;;;2.45;2.13;;;15.50;99.90;;;;;;5031783;28;20025;-77
2023/07/15 03:09:42;;;;;;;1.90;1.63;;;15.60;99.90;;;;;;5032172;28;20036;-76
2023/07/15 03:12:11;;;;;;;2.03;1.70;;;15.50;99.90;;;;;;5031381;28;20033;-76
2023/07/15 03:14:37;;;;;;;4.38;2.05;;;15.40;99.90;;;;;;5031270;28;20570;-76
2023/07/15 03:17:03;;;;;;;2.78;2.13;;;15.40;99.90;;;;;;5032133;28;20116;-76
2023/07/15 03:19:31;;;;;;;5.13;1.45;;;15.40;99.90;;;;;;5031671;28;20017;-76
2023/07/15 03:21:57;;;;;;;1.65;1.17;;;15.50;99.90;;;;;;5030499;28;20084;-76
2023/07/15 03:24:25;;;;;;;2.60;2.00;;;15.50;99.90;;;;;;5031637;28;20033;-76
2023/07/15 03:26:51;;;;;;;2.00;1.63;;;15.50;99.90;;;;;;5031740;28;20021;-76
2023/07/15 03:29:17;;;;;;;1.60;1.40;;;15.40;99.90;;;;;;5030410;28;20167;-76
2023/07/15 03:31:43;;;;;;;5.97;1.58;;;15.40;99.90;;;;;;5031565;28;20104;-76
2023/07/15 03:34:08;;;;;;;2.17;1.30;;;15.50;99.90;;;;;;5031882;28;20025;-76
2023/07/15 03:36:34;;;;;;;4.65;1.92;;;15.50;99.90;;;;;;5031524;28;20534;-76
2023/07/15 03:39:00;;;;;;;3.22;2.08;;;15.50;99.90;;;;;;5030510;28;20033;-76
2023/07/15 03:41:25;;;;;;;1.80;1.67;;;15.60;99.90;;;;;;5031539;28;20063;-76
2023/07/15 03:43:51;;;;;;;1.90;1.75;;;15.60;99.90;;;;;;5031672;28;20104;-76
2023/07/15 03:46:17;;;;;;;1.25;1.23;;;15.60;99.90;;;;;;5029482;28;20021;-76
2023/07/15 03:48:42;;;;;;;2.28;1.90;;;15.50;99.90;;;;;;5031461;28;20079;-76
2023/07/15 03:51:08;;;;;;;4.88;2.08;;;15.60;99.90;;;;;;5031596;28;20028;-76
2023/07/15 03:53:34;;;;;;;2.72;2.17;;;15.70;99.90;;;;;;5032463;28;20060;-78
2023/07/15 03:56:00;;;;;;;2.13;1.92;;;15.70;99.90;;;;;;5035617;28;20460;-78
2023/07/15 03:58:26;;;;;;;1.77;1.52;;;15.80;99.90;;;;;;5034262;28;20048;-77
2023/07/15 04:00:51;;;;;;;3.28;2.75;;;18.10;99.90;;;;;;5034759;28;20071;-77
2023/07/15 04:03:18;;;;;;;4.82;2.15;;;19.80;99.90;;;;;;5033166;28;20105;-76
2023/07/15 04:05:43;;;;;;;3.13;1.80;;;20.60;99.90;;;;;;5033180;28;20026;-76
2023/07/15 04:08:09;;;;;;;1.90;1.40;;;21.00;99.90;;;;;;5034315;28;20040;-77
2023/07/15 04:10:35;;;;;;;2.88;1.40;;;21.30;99.90;;;;;;5032697;28;20041;-78
2023/07/15 04:13:00;;;;;;;3.13;2.80;;;20.50;99.90;;;;;;5034466;28;20030;-77
2023/07/15 04:15:26;;;;;;;1.40;1.27;;;19.70;99.90;;;;;;5034040;28;20025;-77
2023/07/15 04:17:52;;;;;;;4.47;1.67;;;19.80;99.90;;;;;;5032424;28;20018;-77
2023/07/15 04:20:17;;;;;;;2.65;1.60;;;20.10;99.90;;;;;;5033284;28;20481;-77
2023/07/15 04:22:44;;;;;;;1.27;1.17;;;20.30;99.90;;;;;;5033088;28;20057;-76
2023/07/15 04:25:12;;;;;;;1.98;1.67;;;20.20;99.90;;;;;;5035660;28;20044;-77
2023/07/15 04:27:39;;;;;;;3.88;1.58;;;20.10;99.90;;;;;;5037221;28;20075;-78
2023/07/15 04:30:05;;;;;;;5.50;1.60;;;20.00;99.90;;;;;;5037046;28;20029;-77
2023/07/15 04:32:31;;;;;;;1.52;1.42;;;19.70;99.90;;;;;;5035915;28;20033;-78
2023/07/15 04:34:57;;;;;;;1.10;0.98;;;19.90;99.90;;;;;;5035749;28;20460;-77
2023/07/15 04:37:22;;;;;;;2.88;1.55;;;20.20;99.90;;;;;;5036986;28;20033;-78
2023/07/15 04:39:48;;;;;;;1.83;1.50;;;20.00;99.90;;;;;;5037322;28;20025;-78
2023/07/15 04:42:14;;;;;;;1.77;1.20;;;20.10;99.90;;;;;;5036032;28;20563;-76
2023/07/15 04:44:40;;;;;;;3.60;1.77;;;20.10;99.90;;;;;;5037052;28;20021;-78
2023/07/15 04:47:05;;;;;;;3.00;1.70;;;19.70;99.90;;;;;;5035758;28;20055;-78
2023/07/15 04:49:31;;;;;;;1.80;1.50;;;19.20;99.90;;;;;;5036293;28;20540;-78
2023/07/15 04:51:57;;;;;;;4.05;1.52;;;19.20;99.90;;;;;;5036161;28;20025;-77
2023/07/15 04:54:22;;;;;;;4.97;1.60;;;19.60;99.90;;;;;;5035650;28;20036;-77
2023/07/15 04:56:48;;;;;;;2.00;1.75;;;19.80;99.90;;;;;;5036884;28;20029;-78
2023/07/15 04:59:14;;;;;;;4.82;1.45;;;20.10;99.90;;;;;;5035595;28;20017;-77
2023/07/15 05:01:39;;;;;;;2.03;1.83;;;20.10;99.90;;;;;;5035342;28;20022;-77
2023/07/15 05:04:05;;;;;;;2.05;1.70;;;19.90;99.90;;;;;;5035347;28;20072;-76
2023/07/15 05:06:31;;;;;;;2.22;1.50;;;19.80;99.90;;;;;;5036728;28;20025;-77
2023/07/15 05:08:57;;;;;;;3.03;1.58;;;20.20;99.90;;;;;;5036542;28;20025;-77
2023/07/15 05:11:26;;;;;;;3.17;1.70;;;20.60;99.90;;;;;;5036474;28;20033;-78
2023/07/15 05:13:52;;;;;;;4.90;1.92;;;20.80;99.90;;;;;;5037585;28;20032;-77
2023/07/15 05:16:17;;;;;;;6.28;1.52;;;20.60;99.90;;;;;;5035516;28;20033;-77
2023/07/15 05:18:43;;;;;;;3.40;1.30;;;20.90;99.90;;;;;;5035368;28;20112;-76
2023/07/15 05:21:09;;;;;;;4.38;1.88;;;21.30;99.90;;;;;;5036508;28;20049;-78
2023/07/15 05:23:35;;;;;;;2.15;1.48;;;21.40;99.90;;;;;;5037180;28;20026;-77
2023/07/15 05:26:01;;;;;;;1.52;1.42;;;21.20;99.90;;;;;;5037117;28;20021;-77
2023/07/15 05:28:30;;;;;;;1.98;1.38;;;21.20;99.90;;;;;;5036438;28;20033;-77
2023/07/15 05:31:00;;;;;;;3.22;1.80;;;21.30;99.90;;;;;;5035720;28;20394;-77
2023/07/15 05:33:26;;;;;;;2.00;1.90;;;21.30;99.90;;;;;;5036651;28;20112;-75
2023/07/15 05:35:52;;;;;;;2.67;1.98;;;21.10;99.90;;;;;;5035438;28;20025;-76
2023/07/15 05:38:21;;;;;;;3.78;2.10;;;21.20;99.90;;;;;;5035258;28;20021;-77
2023/07/15 05:40:47;;;;;;;1.98;1.60;;;20.80;99.90;;;;;;5035892;28;20026;-77
2023/07/15 05:43:13;;;;;;;1.85;1.75;;;20.50;99.90;;;;;;5033387;28;20026;-77
2023/07/15 05:45:38;;;;;;;3.55;2.10;;;20.80;99.90;;;;;;5033469;28;20079;-77
2023/07/15 05:48:04;;;;;;;8.60;2.75;;;21.10;99.90;;;;;;5034378;28;20382;-77
2023/07/15 05:50:34;;;;;;;3.20;2.22;;;21.20;99.90;;;;;;5035003;28;20498;-77
2023/07/15 05:53:00;;;;;;;6.05;2.17;;;21.30;99.90;;;;;;5034867;28;20380;-76
2023/07/15 05:55:25;;;;;;;2.22;1.80;;;21.50;99.90;;;;;;5033924;28;20087;-77
2023/07/15 05:57:51;;;;;;;2.53;1.65;;;21.60;99.90;;;;;;5033913;28;20045;-77
2023/07/15 06:00:17;;;;;;;4.93;1.58;;;21.90;99.90;;;;;;5035175;28;20049;-77
2023/07/15 06:02:43;;;;;;;2.15;1.75;;;22.00;99.90;;;;;;5033760;28;20029;-77
2023/07/15 06:05:09;;;;;;;2.25;1.83;;;22.10;99.90;;;;;;5033784;28;20383;-76
2023/07/15 06:07:35;;;;;;;3.80;1.83;;;22.00;99.90;;;;;;5032358;28;20037;-77
2023/07/15 06:10:01;;;;;;;1.45;1.35;;;22.00;99.90;;;;;;5035815;28;20128;-77
2023/07/15 06:12:27;;;;;;;2.83;1.85;;;21.90;99.90;;;;;;5035249;28;20025;-78
2023/07/15 06:14:53;;;;;;;2.33;1.60;;;21.50;99.90;;;;;;5034921;28;20040;-77
2023/07/15 06:17:18;;;;;;;2.10;1.90;;;21.60;99.90;;;;;;5035818;28;20029;-77
2023/07/15 06:19:44;;;;;;;4.93;2.20;;;21.70;99.90;;;;;;5033988;28;20021;-77
2023/07/15 06:22:10;;;;;;;4.20;1.85;;;21.70;99.90;;;;;;5036299;28;20532;-78
2023/07/15 06:24:35;;;;;;;1.73;1.63;;;21.80;99.90;;;;;;5035687;28;20029;-77
2023/07/15 06:27:01;;;;;;;1.50;1.40;;;22.00;99.90;;;;;;5035688;28;20032;-76
2023/07/15 06:29:28;;;;;;;1.98;1.60;;;22.10;99.90;;;;;;5034979;28;20450;-78
2023/07/15 06:31:53;;;;;;;2.08;1.38;;;22.30;99.90;;;;;;5035777;28;20103;-78
2023/07/15 06:34:19;;;;;;;4.28;1.50;;;22.60;99.90;;;;;;5035858;28;20029;-78
2023/07/15 06:36:45;;;;;;;3.28;2.15;;;22.60;99.90;;;;;;5036990;28;20580;-77
2023/07/15 06:39:11;;;;;;;2.40;1.40;;;22.80;99.90;;;;;;5035966;28;20021;-78
2023/07/15 06:41:37;;;;;;;2.65;1.52;;;22.90;99.90;;;;;;5035277;28;20113;-77
2023/07/15 06:44:03;;;;;;;1.88;1.60;;;23.20;99.90;;;;;;5036010;28;20111;-78
2023/07/15 06:46:28;;;;;;;2.03;1.83;;;23.30;99.90;;;;;;5035113;28;20029;-78
2023/07/15 06:48:55;;;;;;;1.75;1.50;;;23.50;99.90;;;;;;5036730;28;20022;-77
2023/07/15 06:51:25;;;;;;;1.30;1.20;;;23.70;99.90;;;;;;5037094;28;20021;-78
2023/07/15 06:53:50;;;;;;;2.83;1.80;;;23.90;99.90;;;;;;5034473;28;20022;-77
2023/07/15 06:56:16;;;;;;;3.45;1.58;;;24.00;99.90;;;;;;5034543;28;20022;-76
2023/07/15 06:58:41;;;;;;;1.50;1.40;;;24.10;99.90;;;;;;5034397;28;20032;-79
2023/07/15 07:01:07;;;;;;;2.85;1.70;;;24.20;99.90;;;;;;5033545;28;20025;-77
2023/07/15 07:03:33;;;;;;;2.83;1.55;;;24.40;99.90;;;;;;5033184;28;20096;-77
2023/07/15 07:05:59;;;;;;;4.03;1.52;;;24.60;99.90;;;;;;5032952;28;20117;-77
2023/07/15 07:08:24;;;;;;;2.17;1.55;;;24.80;99.90;;;;;;5034608;28;20029;-76
2023/07/15 07:10:53;;;;;;;2.25;1.50;;;24.90;99.90;;;;;;5034240;28;20025;-77
2023/07/15 07:13:19;;;;;;;1.48;1.33;;;25.10;99.90;;;;;;5033630;28;20036;-77
2023/07/15 07:15:47;;;;;;;1.48;1.10;;;25.20;99.90;;;;;;5033850;28;20061;-77
2023/07/15 07:18:13;;;;;;;1.23;1.23;;;25.30;99.90;;;;;;5034222;28;20079;-75
2023/07/15 07:20:39;;;;;;;2.53;1.30;;;25.40;99.50;;;;;;5033791;28;20445;-77
2023/07/15 07:23:04;;;;;;;1.80;1.50;;;25.70;98.30;;;;;;5033974;28;20716;-76
2023/07/15 07:25:30;;;;;;;4.70;1.27;;;25.90;97.80;;;;;;5033498;28;20026;-77
2023/07/15 07:27:56;;;;;;;1.27;1.17;;;25.90;96.90;;;;;;5033305;28;20406;-77
2023/07/15 07:30:21;;;;;;;3.10;1.38;;;26.00;95.50;;;;;;5032181;28;20108;-77
2023/07/15 07:32:48;;;;;;;2.38;1.10;;;26.10;96.00;;;;;;5031816;28;20031;-75
2023/07/15 07:35:14;;;;;;;1.38;1.15;;;26.20;93.70;;;;;;5032757;28;20040;-76
2023/07/15 07:37:39;;;;;;;1.65;1.20;;;26.40;94.50;;;;;;5035211;28;20025;-78
2023/07/15 07:40:06;;;;;;;4.38;1.42;;;26.50;93.30;;;;;;5037348;28;20026;-79
2023/07/15 07:42:32;;;;;;;1.33;1.23;;;26.60;94.00;;;;;;5032719;28;20021;-76
2023/07/15 07:44:57;;;;;;;1.08;1.08;;;26.70;92.20;;;;;;5032165;28;20096;-75
2023/07/15 07:47:24;;;;;;;4.82;1.15;;;26.80;92.20;;;;;;5031292;28;20383;-76
2023/07/15 07:49:50;;;;;;;1.08;1.05;;;26.80;90.80;;;;;;5031719;28;20079;-76
2023/07/15 07:52:15;;;;;;;4.72;1.35;;;26.90;91.50;;;;;;5031357;28;20037;-76
2023/07/15 07:54:41;;;;;;;1.23;1.10;;;27.00;90.00;;;;;;5030171;28;20390;-76
2023/07/15 07:57:08;;;;;;;3.28;1.77;;;27.10;90.60;;;;;;5031365;28;20030;-76
2023/07/15 07:59:33;;;;;;;1.90;1.40;;;27.10;90.70;;;;;;5034041;28;20022;-76
2023/07/15 08:01:59;;;;;;;2.72;1.65;;;27.20;90.40;;;;;;5035254;28;20406;-76
2023/07/15 08:04:24;;;;;;;2.05;1.23;;;27.40;89.90;;;;;;5035195;28;20034;-76
2023/07/15 08:06:50;;;;;;;2.70;1.55;;;27.40;88.80;;;;;;5035069;28;20148;-75
2023/07/15 08:09:16;;;;;;;1.73;1.20;;;27.50;89.70;;;;;;5035160;28;20033;-77
2023/07/15 08:11:42;;;;;;;2.92;1.25;;;27.60;88.50;;;;;;5033964;28;20056;-76
2023/07/15 08:14:09;;;;;;;1.92;1.00;;;27.80;90.00;;;;;;5035041;28;20036;-75
2023/07/15 08:16:36;;;;;;;1.27;1.17;;;27.90;88.80;;;;;;5034816;28;20041;-75
2023/07/15 08:19:03;;;;;;;1.88;1.45;;;28.00;87.30;;;;;;5034870;28;20029;-77
2023/07/15 08:21:30;;;;;;;3.70;0.95;;;27.90;88.70;;;;;;5033861;28;20478;-76
2023/07/15 08:23:56;;;;;;;2.80;1.85;;;27.90;86.50;;;;;;5033561;28;20457;-76
2023/07/15 08:26:22;;;;;;;3.67;1.90;;;27.90;85.70;;;;;;5034383;28;20025;-76
2023/07/15 08:28:48;;;;;;;3.70;1.88;;;28.10;88.90;;;;;;5034622;28;20041;-75
2023/07/15 08:31:13;;;;;;;2.92;1.85;;;28.10;86.50;;;;;;5034592;28;20516;-75
2023/07/15 08:33:39;;;;;;;4.30;1.90;;;28.10;85.80;;;;;;5034457;28;20033;-76
2023/07/15 08:36:05;;;;;;;2.85;1.30;;;28.20;83.40;;;;;;5034485;28;20037;-74
2023/07/15 08:38:31;;;;;;;5.28;1.80;;;28.20;84.40;;;;;;5033245;28;20018;-75
2023/07/15 08:41:00;;;;;;;2.72;0.93;;;28.20;85.80;;;;;;5034368;28;20085;-73
2023/07/15 08:43:28;;;;;;;1.33;1.00;;;28.20;82.30;;;;;;5034822;28;20021;-75
2023/07/15 08:45:57;;;;;;;1.13;1.10;;;28.30;85.40;;;;;;5034420;28;20065;-75
2023/07/15 08:48:22;;;;;;;3.50;1.73;;;28.40;85.20;;;;;;5032183;28;20079;-75
2023/07/15 08:50:49;;;;;;;1.55;1.05;;;28.50;85.70;;;;;;5034558;28;20022;-77
2023/07/15 08:53:24;;;;;;;1.63;1.10;;;28.50;85.20;;;;;;5034480;28;20033;-77
2023/07/15 08:55:50;;;;;;;1.23;1.13;;;28.60;87.10;;;;;;5033136;28;20041;-77
2023/07/15 08:58:17;;;;;;;3.72;1.13;;;28.50;83.90;;;;;;5034679;28;20025;-75
2023/07/15 09:00:43;;;;;;;4.75;1.35;;;28.50;84.60;;;;;;5034697;28;20542;-77
2023/07/15 09:03:09;;;;;;;1.50;1.17;;;28.50;86.50;;;;;;5034458;28;20049;-76
2023/07/15 09:05:35;;;;;;;2.33;1.60;;;28.50;87.10;;;;;;5034333;28;20049;-76
2023/07/15 09:08:09;;;;;;;2.63;1.55;;;28.70;87.20;;;;;;5034311;28;20026;-76
2023/07/15 09:10:35;;;;;;;2.00;1.70;;;28.80;87.10;;;;;;5034788;28;20438;-77
2023/07/15 09:13:01;;;;;;;1.73;1.00;;;28.90;85.00;;;;;;5034433;28;20096;-75
2023/07/15 09:15:27;;;;;;;2.90;1.60;;;28.80;83.40;;;;;;5032382;28;20060;-75
2023/07/15 09:17:54;;;;;;;1.33;1.23;;;28.80;83.80;;;;;;5034152;28;20069;-76
2023/07/15 09:20:22;;;;;;;2.03;1.45;;;28.90;86.80;;;;;;5033663;28;20083;-76
2023/07/15 09:22:58;;;;;;;1.60;1.20;;;28.90;87.00;;;;;;5034113;28;20426;-75
2023/07/15 09:25:24;;;;;;;2.83;1.05;;;29.00;85.20;;;;;;5033103;28;20040;-76
2023/07/15 09:27:51;;;;;;;1.30;1.10;;;28.90;85.20;;;;;;5033343;28;20030;-77
2023/07/15 09:30:18;;;;;;;1.27;1.00;;;29.10;86.00;;;;;;5034995;28;20040;-75
2023/07/15 09:32:44;;;;;;;1.48;1.10;;;29.20;83.60;;;;;;5034203;28;20029;-76
2023/07/15 09:35:10;;;;;;;2.40;1.30;;;29.40;83.70;;;;;;5034424;28;20037;-77
2023/07/15 09:37:36;;;;;;;2.58;1.60;;;29.30;81.90;;;;;;5033855;28;20021;-77
2023/07/15 09:40:07;;;;;;;1.42;1.17;;;29.30;82.60;;;;;;5033161;28;20022;-76
2023/07/15 09:42:49;;;;;;;1.35;0.90;;;29.40;83.70;;;;;;5033055;28;20032;-76
2023/07/15 09:45:34;;;;;;;2.65;1.08;;;29.50;83.00;;;;;;5033895;28;20021;-77
2023/07/15 09:48:04;;;;;;;;;;;29.50;81.30;;;;;;5033792;28;20490;-77
2023/07/15 09:50:34;;;;;;;2.08;1.05;;;29.60;81.80;;;;;;5033881;28;19912;-75
2023/07/15 09:53:01;;;;;;;1.50;1.25;;;29.70;78.80;;;;;;5032327;28;20056;-76
2023/07/15 09:55:29;;;;;;;2.30;1.02;;;29.80;79.20;;;;;;5033661;28;20415;-76
2023/07/15 09:58:09;;;;;;;1.45;1.33;;;29.80;78.70;;;;;;5033844;28;20021;-77
2023/07/15 10:00:41;;;;;;;3.90;1.20;;;29.80;79.00;;;;;;5033494;28;20026;-76
2023/07/15 10:03:12;;;;;;;1.55;1.45;;;29.70;79.40;;;;;;5034674;28;20028;-77
2023/07/15 10:05:38;;;;;;;1.98;1.60;;;29.70;79.00;;;;;;5031888;28;20047;-77
2023/07/15 10:08:05;;;;;;;2.40;1.73;;;29.70;79.00;;;;;;5033129;28;20028;-75
2023/07/15 10:10:30;;;;;;;2.30;1.00;;;29.80;80.50;;;;;;5034327;28;20048;-77
2023/07/15 10:12:56;;;;;;;1.67;1.23;;;29.90;79.40;;;;;;5033581;28;20018;-77
2023/07/15 10:15:23;;;;;;;1.67;1.20;;;29.80;79.40;;;;;;5033330;28;20144;-76
2023/07/15 10:17:49;;;;;;;2.63;1.38;;;29.90;81.10;;;;;;5033441;28;20508;-77
2023/07/15 10:20:15;;;;;;;3.13;1.35;;;29.80;79.10;;;;;;5033148;28;20057;-78
2023/07/15 10:22:42;;;;;;;0.90;0.90;;;29.90;78.90;;;;;;5032279;28;20033;-77
2023/07/15 10:25:09;;;;;;;1.02;0.93;;;30.10;78.40;;;;;;5032340;28;20018;-76
2023/07/15 10:27:35;;;;;;;1.83;1.10;;;30.20;79.70;;;;;;5031865;28;20025;-77
2023/07/15 10:30:19;;;;;;;1.20;1.10;;;30.00;81.10;;;;;;5033701;28;20108;-76
2023/07/15 10:33:08;;;;;;;2.28;1.20;;;30.10;78.20;;;;;;5032238;28;20029;-77
2023/07/15 10:35:35;;;;;;;1.92;1.10;;;30.00;81.10;;;;;;5032957;28;20116;-77
2023/07/15 10:38:29;;;;;;;2.60;1.40;;;30.00;79.40;;;;;;5032767;28;20017;-76
2023/07/15 10:41:05;;;;;;;1.38;1.27;;;30.10;80.20;;;;;;5032618;28;20060;-76
2023/07/15 10:43:33;;;;;;;1.17;1.17;;;30.20;77.90;;;;;;5033008;28;20021;-76
2023/07/15 10:46:16;;;;;;;6.68;1.60;;;30.20;77.30;;;;;;5032195;28;20030;-76
2023/07/15 10:48:41;;;;;;;2.45;1.30;;;30.20;78.70;;;;;;5031849;28;20087;-77
2023/07/15 10:51:09;;;;;;;2.08;1.20;;;30.20;78.80;;;;;;5032700;28;20025;-77
2023/07/15 10:53:35;;;;;;;2.67;1.33;;;30.20;79.10;;;;;;5033185;28;20033;-76
2023/07/15 10:56:11;;;;;;;1.40;1.13;;;30.20;77.80;;;;;;5032153;28;20075;-76
2023/07/15 10:58:38;;;;;;;1.85;1.20;;;30.20;78.30;;;;;;5031797;28;20048;-78
2023/07/15 11:01:04;;;;;;;3.65;1.58;;;30.20;79.40;;;;;;5032692;28;20448;-77
2023/07/15 11:03:34;;;;;;;1.38;1.27;;;30.30;78.80;;;;;;5032595;28;20364;-76
2023/07/15 11:06:04;;;;;;;1.50;1.40;;;30.50;77.30;;;;;;5032867;28;20033;-77
2023/07/15 11:08:30;;;;;;;1.55;1.45;;;30.40;77.90;;;;;;5034512;28;20040;-78
2023/07/15 11:11:03;;;;;;;1.20;1.10;;;30.50;76.40;;;;;;5031734;28;20071;-77
2023/07/15 11:13:29;;;;;;;1.70;1.38;;;30.50;78.70;;;;;;5031422;28;20025;-77
2023/07/15 11:15:56;;;;;;;0.80;0.80;;;30.50;78.00;;;;;;5033446;28;20092;-77
2023/07/15 11:18:23;;;;;;;2.22;1.30;;;30.60;79.80;;;;;;5033414;28;20025;-78
2023/07/15 11:20:52;;;;;;;1.75;1.27;;;30.50;78.00;;;;;;5032600;28;20398;-78
2023/07/15 11:23:18;;;;;;;1.58;1.30;;;30.60;77.20;;;;;;5033210;28;20117;-75
2023/07/15 11:25:45;;;;;;;2.40;1.15;;;30.40;77.80;;;;;;5031545;28;20103;-77
2023/07/15 11:28:11;;;;;;;2.10;1.50;;;30.80;78.20;;;;;;5032560;28;20028;-77
2023/07/15 11:30:44;;;;;;;2.05;1.35;;;30.60;77.30;;;;;;5031221;28;20075;-76
2023/07/15 11:33:11;;;;;;;1.92;1.15;;;30.50;76.20;;;;;;5035330;28;20095;-78
2023/07/15 11:35:39;;;;;;;1.05;0.95;;;30.70;76.80;;;;;;5037565;28;20022;-78
2023/07/15 11:38:10;;;;;;;1.10;0.90;;;30.80;77.00;;;;;;5037153;28;20033;-78
2023/07/15 11:40:52;;;;;;;2.95;1.60;;;30.80;74.40;;;;;;5037953;28;20033;-78
2023/07/15 11:43:19;;;;;;;1.40;1.08;;;30.80;72.90;;;;;;5037799;28;20029;-78
2023/07/15 11:45:46;;;;;;;1.83;1.20;;;30.90;72.70;;;;;;5036780;28;20398;-76
2023/07/15 11:48:12;;;;;;;5.47;1.17;;;31.00;73.40;;;;;;5035851;28;20025;-78
2023/07/15 11:50:37;;;;;;;1.75;1.17;;;31.00;72.10;;;;;;5038643;28;20022;-78
2023/07/15 11:53:03;;;;;;;2.75;1.10;;;30.90;73.50;;;;;;5038040;28;20026;-77
2023/07/15 11:55:30;;;;;;;1.75;1.20;;;31.20;73.10;;;;;;5037700;28;20120;-82
2023/07/15 11:57:55;;;;;;;1.17;1.08;;;31.30;74.90;;;;;;5036800;28;20432;-75
2023/07/15 12:00:28;;;;;;;1.10;1.00;;;31.30;74.30;;;;;;5037066;28;20071;-76
2023/07/15 12:02:55;;;;;;;1.50;0.90;;;31.20;74.40;;;;;;5036148;28;20045;-77
2023/07/15 12:05:21;;;;;;;4.40;1.15;;;31.30;72.80;;;;;;5038017;28;20073;-77
2023/07/15 12:07:51;;;;;;;1.50;0.98;;;31.30;73.50;;;;;;5036909;28;20031;-78
2023/07/15 12:10:19;;;;;;;2.95;1.40;;;31.40;75.60;;;;;;5037127;28;20033;-77
2023/07/15 12:12:45;;;;;;;1.65;1.45;;;31.30;72.80;;;;;;5036140;28;20497;-77
2023/07/15 12:15:14;;;;;;;1.40;1.30;;;31.30;72.30;;;;;;5037626;28;20041;-76
2023/07/15 12:17:40;;;;;;;1.38;1.27;;;31.40;72.90;;;;;;5037947;28;20052;-76
2023/07/15 12:20:06;;;;;;;3.13;1.25;;;31.40;72.80;;;;;;5037119;28;20040;-77
2023/07/15 12:22:32;;;;;;;1.85;1.38;;;31.50;71.90;;;;;;5036186;28;20029;-77
2023/07/15 12:24:57;;;;;;;1.17;1.10;;;31.50;72.60;;;;;;5036122;28;20501;-75
2023/07/15 12:27:23;;;;;;;1.92;1.17;;;31.70;74.20;;;;;;5037393;28;20513;-75
2023/07/15 12:29:49;;;;;;;1.73;1.20;;;31.60;71.30;;;;;;5034669;28;20025;-76
2023/07/15 12:32:15;;;;;;;2.13;1.33;;;31.50;72.30;;;;;;5036096;28;20071;-76
2023/07/15 12:34:40;;;;;;;1.15;0.85;;;31.60;73.10;;;;;;5035913;28;20025;-75
2023/07/15 12:37:06;;;;;;;1.80;1.33;;;31.70;72.50;;;;;;5036759;28;20537;-76
2023/07/15 12:39:32;;;;;;;1.48;1.38;;;31.80;70.10;;;;;;5035917;28;20021;-77
2023/07/15 12:41:58;;;;;;;3.03;1.08;;;31.70;69.50;;;;;;5037186;28;20025;-78
2023/07/15 12:44:23;;;;;;;1.45;1.23;;;31.70;68.40;;;;;;5035741;28;20021;-77
2023/07/15 12:46:49;;;;;;;1.55;1.30;;;31.90;69.70;;;;;;5036102;28;20160;-77